Grand Canyon National Park Airport Grand Canyon US
ICAO: KGCN
IATA: GCN
Category: Medium
Scheduled Services: Yes

Elevation: 6609 ft
TransAlt. 18000 ft.

Airport Communications:
ASOS:124.3
ATIS:124.3
LOS ANGELES CNTR:124.85
CTAF:119
GND:121.9
PRESCOTT RDO:122.3
CANYON TWR:119
UNICOM:122.95

KGCN Zoom In..

Runways:

(A) RW 03 length 8999 ft width 150 ft
ILS 108.90 / hdg 27

(B) RW 21 length 8999 ft width 150 ft
---- / hdg 207

Location; KGCN
Day. 15 / Time. 22.54 Zulu
* Altimeter: 30.30
* Temperature: 19° c. 66.2°f.
* Wind from: 210° Speed 05 kn.
Dewpoint: 14° c.
Visibility: 10 Statute Miles.
Clouds: Clear (automated report).

KGCN 152254Z 21005KT 10SM CLR 19/14 A3030 RMK AO2 LTG DSNT NE SLP178 T01940144


Wind From 210°
Speed 05 kn.

 
 
jpsmedia.com for Web Design worldairports.se 2018   terms of use